Time;durP1;ratioP1;P1;durP2;ratioP2;P2;SDS_P1;SDS_P2;PMS_P1;PMS_P2;Temp;Humidity;BMP_temperature;BMP_pressure;BME280_temperature;BME280_humidity;BME280_pressure;Samples;Min_cycle;Max_cycle;Signal;HPM_P1;HPM_P2
2022/11/13 00:00:51;;;;;;;11.13;2.78;;;21.80;76.70;;;;;;5035180;28;20378;-68
2022/11/13 00:03:17;;;;;;;8.60;2.67;;;21.80;76.50;;;;;;5031475;28;20141;-67
2022/11/13 00:05:44;;;;;;;6.90;2.85;;;21.80;76.40;;;;;;5037419;28;20030;-68
2022/11/13 00:08:11;;;;;;;8.10;1.92;;;21.70;76.20;;;;;;5034470;28;20075;-64
2022/11/13 00:10:38;;;;;;;7.93;2.35;;;21.70;76.20;;;;;;5033772;28;20022;-67
2022/11/13 00:13:04;;;;;;;16.20;3.60;;;21.70;76.20;;;;;;5032952;28;20028;-68
2022/11/13 00:15:31;;;;;;;9.93;2.67;;;21.70;76.40;;;;;;5035637;28;20457;-64
2022/11/13 00:18:01;;;;;;;18.02;3.15;;;21.70;76.90;;;;;;5035083;28;20097;-64
2022/11/13 00:20:28;;;;;;;18.25;3.28;;;21.70;77.00;;;;;;5039268;28;20025;-68
2022/11/13 00:22:55;;;;;;;10.45;3.13;;;21.70;77.00;;;;;;5035613;28;20022;-65
2022/11/13 00:25:21;;;;;;;8.95;3.05;;;21.60;77.10;;;;;;5036383;28;20041;-63
2022/11/13 00:27:48;;;;;;;14.77;3.40;;;21.60;77.10;;;;;;5034334;28;20029;-66
2022/11/13 00:30:14;;;;;;;8.57;2.15;;;21.60;77.30;;;;;;5036588;28;20029;-63
2022/11/13 00:32:41;;;;;;;6.43;2.50;;;21.60;77.30;;;;;;5034479;28;20116;-64
2022/11/13 00:35:07;;;;;;;7.00;2.22;;;21.60;77.30;;;;;;5032474;28;20030;-64
2022/11/13 00:37:34;;;;;;;7.80;1.90;;;21.60;77.30;;;;;;5032487;28;20021;-65
2022/11/13 00:40:00;;;;;;;9.07;2.40;;;21.60;77.30;;;;;;5037828;28;20579;-67
2022/11/13 00:42:27;;;;;;;5.43;1.67;;;21.60;77.20;;;;;;5033488;28;20076;-63
2022/11/13 00:44:53;;;;;;;4.47;1.85;;;21.60;77.10;;;;;;5033328;28;20418;-63
2022/11/13 00:47:20;;;;;;;5.25;2.13;;;21.60;77.10;;;;;;5030455;28;20017;-65
2022/11/13 00:49:46;;;;;;;7.10;2.17;;;21.60;77.00;;;;;;5032672;28;20434;-64
2022/11/13 00:52:13;;;;;;;5.10;1.92;;;21.50;76.90;;;;;;5031412;28;20103;-65
2022/11/13 00:54:39;;;;;;;6.78;2.00;;;21.50;76.90;;;;;;5035704;28;20130;-64
2022/11/13 00:57:07;;;;;;;14.32;2.80;;;21.50;77.00;;;;;;5033485;28;20432;-67
2022/11/13 00:59:33;;;;;;;5.25;2.80;;;21.50;77.10;;;;;;5035742;28;20473;-66
2022/11/13 01:02:00;;;;;;;10.95;2.22;;;21.50;77.10;;;;;;5033416;28;20036;-64
2022/11/13 01:04:28;;;;;;;9.18;2.67;;;21.50;77.10;;;;;;5033015;28;20043;-64
2022/11/13 01:06:55;;;;;;;4.53;2.20;;;21.50;77.10;;;;;;5033835;28;20025;-65
2022/11/13 01:09:21;;;;;;;6.03;2.42;;;21.50;77.00;;;;;;5034715;28;20033;-65
2022/11/13 01:11:48;;;;;;;10.32;2.80;;;21.40;76.80;;;;;;5031360;28;20396;-65
2022/11/13 01:14:14;;;;;;;7.40;2.88;;;21.40;76.80;;;;;;5033635;28;20388;-65
2022/11/13 01:16:41;;;;;;;9.90;3.67;;;21.40;76.80;;;;;;5031758;28;20452;-64
2022/11/13 01:19:07;;;;;;;7.50;3.00;;;21.40;76.70;;;;;;5034808;28;20026;-65
2022/11/13 01:21:34;;;;;;;10.55;2.65;;;21.40;76.80;;;;;;5030551;28;20438;-65
2022/11/13 01:24:01;;;;;;;9.38;2.03;;;21.40;76.80;;;;;;5031373;28;20033;-65
2022/11/13 01:26:29;;;;;;;19.95;4.30;;;21.40;76.80;;;;;;5034773;28;20022;-65
2022/11/13 01:28:58;;;;;;;22.45;3.47;;;21.40;77.00;;;;;;5032097;28;20083;-65
2022/11/13 01:31:30;;;;;;;30.63;4.10;;;21.40;77.20;;;;;;5035776;28;20060;-67
2022/11/13 01:33:58;;;;;;;13.23;3.63;;;21.40;77.20;;;;;;5032973;28;20024;-66
2022/11/13 01:36:27;;;;;;;7.78;2.55;;;21.40;77.10;;;;;;5032408;28;20024;-66
2022/11/13 01:38:54;;;;;;;7.95;1.83;;;21.40;77.00;;;;;;5035398;28;20021;-66
2022/11/13 01:41:25;;;;;;;17.50;2.63;;;21.30;76.90;;;;;;5032504;28;20017;-68
2022/11/13 01:43:53;;;;;;;12.77;2.35;;;21.30;76.90;;;;;;5032828;28;20060;-69
2022/11/13 01:46:26;;;;;;;11.35;2.63;;;21.30;76.80;;;;;;5029817;28;20021;-68
2022/11/13 01:49:10;;;;;;;13.75;2.17;;;21.30;76.90;;;;;;5033943;28;20013;-66
2022/11/13 01:51:39;;;;;;;15.60;2.90;;;21.30;76.70;;;;;;5032545;28;20036;-64
2022/11/13 01:54:15;;;;;;;3.83;1.50;;;21.30;76.80;;;;;;5033381;28;20491;-68
2022/11/13 01:56:42;;;;;;;8.48;2.05;;;21.30;76.80;;;;;;5030005;28;20030;-64
2022/11/13 01:59:14;;;;;;;6.47;1.95;;;21.20;76.70;;;;;;5031624;28;20021;-68
2022/11/13 02:01:41;;;;;;;13.00;3.20;;;21.20;76.80;;;;;;5030249;28;20021;-69
2022/11/13 02:04:08;;;;;;;9.25;2.35;;;21.20;76.70;;;;;;5029662;28;20120;-65
2022/11/13 02:06:54;;;;;;;8.13;1.50;;;21.20;76.70;;;;;;5030621;28;20032;-67
2022/11/13 02:09:25;;;;;;;12.88;2.40;;;21.20;76.70;;;;;;5030474;28;20018;-68
2022/11/13 02:11:52;;;;;;;11.05;2.67;;;21.20;76.60;;;;;;5032450;28;20066;-65
2022/11/13 02:14:22;;;;;;;3.05;1.30;;;21.20;76.60;;;;;;5031721;28;20083;-67
2022/11/13 02:16:52;;;;;;;6.10;2.17;;;21.20;76.60;;;;;;5031775;28;20051;-65
2022/11/13 02:19:37;;;;;;;3.10;1.33;;;21.10;76.60;;;;;;5029721;28;20092;-68
2022/11/13 02:22:14;;;;;;;5.27;1.73;;;21.10;76.50;;;;;;5030095;28;20068;-64
2022/11/13 02:24:44;;;;;;;9.88;2.08;;;21.10;76.50;;;;;;5031618;28;20294;-68
2022/11/13 02:27:26;;;;;;;11.15;2.97;;;21.10;76.50;;;;;;5032521;28;20065;-65
2022/11/13 02:29:53;;;;;;;11.75;4.85;;;21.10;76.50;;;;;;5033698;28;20121;-65
2022/11/13 02:32:19;;;;;;;10.15;3.30;;;21.10;76.50;;;;;;5035003;28;20041;-64
2022/11/13 02:34:46;;;;;;;10.05;2.53;;;21.10;76.50;;;;;;5029623;28;20056;-69
2022/11/13 02:37:12;;;;;;;8.90;2.83;;;21.10;76.50;;;;;;5034025;28;20407;-64
2022/11/13 02:39:39;;;;;;;9.85;2.45;;;21.10;76.50;;;;;;5032361;28;20033;-64
2022/11/13 02:42:06;;;;;;;11.02;2.72;;;21.00;76.40;;;;;;5031135;28;20030;-64
2022/11/13 02:44:32;;;;;;;4.55;2.13;;;21.00;76.40;;;;;;5034373;28;20504;-65
2022/11/13 02:46:59;;;;;;;6.88;2.78;;;21.00;76.30;;;;;;5034069;28;20044;-64
2022/11/13 02:49:25;;;;;;;3.25;2.65;;;21.00;76.30;;;;;;5034018;28;20574;-64
2022/11/13 02:51:52;;;;;;;11.80;2.45;;;21.00;76.40;;;;;;5031919;28;20025;-64
2022/11/13 02:54:18;;;;;;;8.98;1.85;;;21.00;76.50;;;;;;5030431;28;20029;-65
2022/11/13 02:56:45;;;;;;;28.33;3.20;;;21.00;76.50;;;;;;5031885;28;20021;-64
2022/11/13 02:59:11;;;;;;;11.95;2.08;;;21.00;76.50;;;;;;5034353;28;20053;-65
2022/11/13 03:01:38;;;;;;;19.15;2.53;;;21.00;77.40;;;;;;5032465;28;20036;-64
2022/11/13 03:04:04;;;;;;;11.13;1.77;;;20.90;77.60;;;;;;5030050;28;20037;-64
2022/11/13 03:06:31;;;;;;;6.05;1.48;;;20.90;77.20;;;;;;5034211;28;20025;-64
2022/11/13 03:08:57;;;;;;;10.68;2.40;;;20.90;76.80;;;;;;5033512;28;20029;-64
2022/11/13 03:11:24;;;;;;;6.07;2.42;;;20.90;76.30;;;;;;5033469;28;20022;-64
2022/11/13 03:13:50;;;;;;;5.85;2.20;;;20.80;76.00;;;;;;5033712;28;20064;-65
2022/11/13 03:16:17;;;;;;;8.25;3.47;;;20.80;75.70;;;;;;5035606;28;20759;-65
2022/11/13 03:18:43;;;;;;;7.07;1.45;;;20.80;75.50;;;;;;5036544;28;20021;-67
2022/11/13 03:21:13;;;;;;;8.05;3.10;;;20.80;75.50;;;;;;5035671;28;20029;-66
2022/11/13 03:23:43;;;;;;;7.90;1.77;;;20.70;75.50;;;;;;5038942;28;20122;-65
2022/11/13 03:26:12;;;;;;;5.72;2.38;;;20.70;75.50;;;;;;5037184;28;20365;-65
2022/11/13 03:28:39;;;;;;;8.23;2.08;;;20.80;75.70;;;;;;5035611;28;20027;-68
2022/11/13 03:31:05;;;;;;;10.48;2.35;;;20.70;75.70;;;;;;5035464;28;20025;-64
2022/11/13 03:33:32;;;;;;;5.10;1.42;;;20.70;75.90;;;;;;5036225;28;20099;-64
2022/11/13 03:35:59;;;;;;;5.72;1.73;;;20.70;75.90;;;;;;5034498;28;20022;-64
2022/11/13 03:38:26;;;;;;;7.63;2.38;;;20.70;75.80;;;;;;5035255;28;20024;-66
2022/11/13 03:40:52;;;;;;;5.57;1.95;;;20.70;75.80;;;;;;5032617;28;20100;-63
2022/11/13 03:43:19;;;;;;;6.78;2.58;;;20.60;75.70;;;;;;5035519;28;20115;-63
2022/11/13 03:45:46;;;;;;;4.10;2.42;;;20.60;75.60;;;;;;5034400;28;20020;-64
2022/11/13 03:48:16;;;;;;;7.55;2.55;;;20.60;75.60;;;;;;5039023;28;20033;-62
2022/11/13 03:50:46;;;;;;;6.03;1.75;;;20.60;75.60;;;;;;5033416;28;20027;-62
2022/11/13 03:53:14;;;;;;;8.93;2.28;;;20.60;75.70;;;;;;5036593;28;20026;-62
2022/11/13 03:55:40;;;;;;;9.60;2.72;;;20.60;75.70;;;;;;5031830;28;20394;-64
2022/11/13 03:58:07;;;;;;;5.60;1.33;;;20.50;75.70;;;;;;5033600;28;20019;-63
2022/11/13 04:00:33;;;;;;;7.40;2.33;;;20.60;75.80;;;;;;5034505;28;20013;-62
2022/11/13 04:03:00;;;;;;;2.83;1.73;;;20.50;75.80;;;;;;5034046;28;20079;-65
2022/11/13 04:05:27;;;;;;;9.82;3.30;;;20.50;75.90;;;;;;5037137;28;20038;-63
2022/11/13 04:07:53;;;;;;;19.30;6.95;;;20.50;76.00;;;;;;5033832;28;20477;-67
2022/11/13 04:10:20;;;;;;;20.95;12.85;;;20.50;76.50;;;;;;5033998;28;20032;-63
2022/11/13 04:12:46;;;;;;;20.67;8.63;;;20.50;76.50;;;;;;5033293;28;20018;-63
2022/11/13 04:15:13;;;;;;;9.95;5.20;;;20.50;76.50;;;;;;5032616;28;20041;-64
2022/11/13 04:17:39;;;;;;;10.55;2.97;;;20.50;77.10;;;;;;5036846;28;20476;-64
2022/11/13 04:20:07;;;;;;;7.32;2.67;;;20.50;76.50;;;;;;5031640;28;20017;-64
2022/11/13 04:22:33;;;;;;;8.60;2.95;;;20.50;76.60;;;;;;5034568;28;20112;-63
2022/11/13 04:25:00;;;;;;;5.18;2.00;;;20.50;76.70;;;;;;5034243;28;20036;-63
2022/11/13 04:27:27;;;;;;;18.08;2.30;;;20.50;76.90;;;;;;5032966;28;20092;-64
2022/11/13 04:29:53;;;;;;;4.90;1.77;;;20.50;77.10;;;;;;5032598;28;20420;-63
2022/11/13 04:32:20;;;;;;;6.00;1.52;;;20.50;77.10;;;;;;5047152;28;20421;-63
2022/11/13 04:34:46;;;;;;;8.63;2.35;;;20.50;77.20;;;;;;5033345;28;20029;-65
2022/11/13 04:37:13;;;;;;;11.52;4.28;;;20.50;77.40;;;;;;5033852;28;20136;-65
2022/11/13 04:39:39;;;;;;;9.35;3.85;;;20.50;77.60;;;;;;5037609;28;20057;-63
2022/11/13 04:44:50;;;;;;;5.67;2.53;;;20.50;77.90;;;;;;5034923;28;20147;-64
2022/11/13 04:47:17;;;;;;;8.25;2.95;;;20.50;78.10;;;;;;5035644;28;20281;-64
2022/11/13 04:49:43;;;;;;;5.00;1.48;;;20.50;78.20;;;;;;5038998;28;20021;-63
2022/11/13 04:52:10;;;;;;;1.98;1.10;;;20.50;78.30;;;;;;5033279;28;20529;-65
2022/11/13 04:54:36;;;;;;;8.40;4.07;;;20.60;78.60;;;;;;5030993;28;20029;-66
2022/11/13 04:57:03;;;;;;;9.00;1.70;;;20.60;79.30;;;;;;5032790;28;20022;-63
2022/11/13 04:59:29;;;;;;;13.40;2.78;;;20.50;79.50;;;;;;5038581;28;20478;-66
2022/11/13 05:01:56;;;;;;;8.02;4.57;;;20.50;80.00;;;;;;5035688;28;20032;-63
2022/11/13 05:04:23;;;;;;;19.23;12.57;;;20.50;80.50;;;;;;5028761;28;20025;-66
2022/11/13 05:06:49;;;;;;;16.85;10.75;;;20.50;80.50;;;;;;5031784;28;20033;-67
2022/11/13 05:09:16;;;;;;;16.08;7.28;;;20.50;80.50;;;;;;5036350;28;20013;-67
2022/11/13 05:11:42;;;;;;;17.08;6.00;;;20.60;80.50;;;;;;5032757;28;20017;-67
2022/11/13 05:14:11;;;;;;;6.45;2.95;;;20.60;80.50;;;;;;5032851;28;20176;-65
2022/11/13 05:16:38;;;;;;;12.52;5.70;;;20.60;80.40;;;;;;5033418;28;20029;-64
2022/11/13 05:19:07;;;;;;;9.90;6.75;;;20.60;80.40;;;;;;5033033;28;20028;-67
2022/11/13 05:21:35;;;;;;;14.43;8.32;;;20.60;80.40;;;;;;5033225;28;20017;-66
2022/11/13 05:24:03;;;;;;;14.18;9.38;;;20.60;80.40;;;;;;5029574;28;20484;-65
2022/11/13 05:26:29;;;;;;;22.13;7.60;;;20.70;80.50;;;;;;5029125;28;20017;-66
2022/11/13 05:28:57;;;;;;;18.25;5.85;;;20.70;80.70;;;;;;5032248;28;20068;-64
2022/11/13 05:31:24;;;;;;;12.23;4.07;;;20.70;80.80;;;;;;5032004;28;20028;-68
2022/11/13 05:33:51;;;;;;;12.40;3.40;;;20.70;80.90;;;;;;5029258;28;20025;-65
2022/11/13 05:36:19;;;;;;;8.77;2.83;;;20.70;81.00;;;;;;5026264;28;20024;-65
2022/11/13 05:38:46;;;;;;;13.18;4.82;;;20.80;81.20;;;;;;5033258;28;20035;-66
2022/11/13 05:41:17;;;;;;;19.98;12.38;;;20.80;81.10;;;;;;5032008;28;20024;-66
2022/11/13 05:43:44;;;;;;;20.65;10.68;;;20.80;81.10;;;;;;5030575;28;20037;-67
2022/11/13 05:46:21;;;;;;;18.50;8.63;;;20.80;81.10;;;;;;5030766;28;20033;-64
2022/11/13 05:48:52;;;;;;;9.65;5.97;;;20.90;81.30;;;;;;5033269;28;20025;-66
2022/11/13 05:51:23;;;;;;;13.48;3.83;;;20.80;81.20;;;;;;5031052;28;20053;-65
2022/11/13 05:53:49;;;;;;;16.42;3.58;;;20.90;81.20;;;;;;5034393;28;20025;-66
2022/11/13 05:56:25;;;;;;;87.90;16.42;;;20.90;80.90;;;;;;5035102;28;20025;-65
2022/11/13 05:58:52;;;;;;;212.93;25.63;;;20.90;80.40;;;;;;5029999;28;20365;-67
2022/11/13 06:01:22;;;;;;;113.45;17.13;;;20.90;80.60;;;;;;5032113;28;20025;-65
2022/11/13 06:03:49;;;;;;;70.15;12.70;;;20.90;81.00;;;;;;5027078;28;20033;-66
2022/11/13 06:06:19;;;;;;;16.10;2.95;;;20.90;81.00;;;;;;5032261;28;20014;-70
2022/11/13 06:08:47;;;;;;;4.93;1.60;;;21.10;81.10;;;;;;5028573;28;20083;-71
2022/11/13 06:11:17;;;;;;;43.05;8.40;;;21.10;79.10;;;;;;5028892;28;20033;-67
2022/11/13 06:13:45;;;;;;;72.22;16.60;;;21.10;78.70;;;;;;5026516;28;20022;-68
2022/11/13 06:16:26;;;;;;;59.85;12.18;;;21.10;78.90;;;;;;5027680;28;20419;-68
2022/11/13 06:19:00;;;;;;;33.10;9.05;;;21.10;79.40;;;;;;5030020;28;20091;-67
2022/11/13 06:21:30;;;;;;;41.10;7.55;;;21.10;80.50;;;;;;5029659;28;20484;-67
2022/11/13 06:23:58;;;;;;;17.05;4.63;;;21.20;81.20;;;;;;5032319;28;20029;-67
2022/11/13 06:26:29;;;;;;;33.50;7.63;;;21.20;81.80;;;;;;5031764;28;20013;-67
2022/11/13 06:28:56;;;;;;;32.00;12.65;;;21.30;81.80;;;;;;5032321;28;20081;-67
2022/11/13 06:31:34;;;;;;;10.40;3.78;;;21.30;81.70;;;;;;5027448;28;21195;-70
2022/11/13 06:34:13;;;;;;;18.08;7.20;;;21.40;81.00;;;;;;5027756;28;20042;-68
2022/11/13 06:36:47;;;;;;;15.23;5.13;;;21.40;80.50;;;;;;5028918;28;20029;-69
2022/11/13 06:39:14;;;;;;;9.88;3.83;;;21.40;80.10;;;;;;5029316;28;20155;-70
2022/11/13 06:41:40;;;;;;;5.47;2.60;;;21.50;79.90;;;;;;5027389;28;20040;-69
2022/11/13 06:44:07;;;;;;;3.75;3.05;;;21.50;79.60;;;;;;5028834;28;20029;-66
2022/11/13 06:46:34;;;;;;;7.57;1.63;;;21.50;79.30;;;;;;5030671;28;20040;-68
2022/11/13 06:49:01;;;;;;;6.63;1.30;;;21.50;78.90;;;;;;5031701;28;20554;-69
2022/11/13 06:51:29;;;;;;;7.38;1.65;;;21.50;78.50;;;;;;5029260;28;20036;-68
2022/11/13 06:53:57;;;;;;;6.63;2.00;;;21.50;78.00;;;;;;5034477;28;20029;-70
2022/11/13 06:56:24;;;;;;;3.70;1.40;;;21.50;77.30;;;;;;5028657;28;20021;-67
2022/11/13 06:58:50;;;;;;;7.03;3.33;;;21.50;76.70;;;;;;5034030;28;20657;-68
2022/11/13 07:01:19;;;;;;;8.05;4.38;;;21.40;76.10;;;;;;5032435;28;20029;-67
2022/11/13 07:03:46;;;;;;;6.72;3.15;;;21.50;75.70;;;;;;5033445;28;20033;-70
2022/11/13 07:06:15;;;;;;;5.32;1.67;;;21.50;75.20;;;;;;5034742;28;20057;-68
2022/11/13 07:08:43;;;;;;;6.13;1.00;;;21.50;74.30;;;;;;5034748;28;20449;-69
2022/11/13 07:11:11;;;;;;;5.68;1.52;;;21.60;73.10;;;;;;5034550;28;20022;-68
2022/11/13 07:13:38;;;;;;;4.65;0.80;;;21.60;72.00;;;;;;5030753;28;20099;-69
2022/11/13 07:16:07;;;;;;;6.72;2.05;;;21.70;72.20;;;;;;5035564;28;20484;-67
2022/11/13 07:18:34;;;;;;;8.25;2.03;;;21.70;72.40;;;;;;5031858;28;20024;-68
2022/11/13 07:21:06;;;;;;;5.60;0.80;;;21.70;73.20;;;;;;5034039;28;20480;-70
2022/11/13 07:23:35;;;;;;;3.53;1.10;;;21.80;72.70;;;;;;5034891;28;20075;-68
2022/11/13 07:26:05;;;;;;;2.67;1.85;;;21.80;72.60;;;;;;5033537;28;20033;-69
2022/11/13 07:28:31;;;;;;;3.40;0.75;;;21.90;72.60;;;;;;5035399;28;20028;-65
2022/11/13 07:30:59;;;;;;;5.88;1.00;;;21.90;72.30;;;;;;5031656;28;20071;-65
2022/11/13 07:33:25;;;;;;;4.95;1.00;;;22.00;72.10;;;;;;5037176;28;20021;-69
2022/11/13 07:35:56;;;;;;;3.85;0.88;;;22.00;71.80;;;;;;5035560;28;20037;-68
2022/11/13 07:38:22;;;;;;;8.40;1.35;;;22.00;71.30;;;;;;5034798;28;20120;-66
2022/11/13 07:40:50;;;;;;;5.50;0.55;;;22.00;70.80;;;;;;5033083;28;20022;-66
2022/11/13 07:43:17;;;;;;;5.47;0.93;;;22.10;70.30;;;;;;5032863;28;20044;-71
2022/11/13 07:45:43;;;;;;;4.82;0.93;;;22.10;69.80;;;;;;5037382;28;20042;-67
2022/11/13 07:48:10;;;;;;;1.70;0.60;;;22.20;69.40;;;;;;5029997;28;20025;-67
2022/11/13 07:51:19;;;;;;;3.95;1.10;;;22.20;69.20;;;;;;5029242;28;20024;-71
2022/11/13 07:54:25;;;;;;;2.65;0.77;;;22.30;68.90;;;;;;5029006;28;20026;-67
2022/11/13 07:57:16;;;;;;;1.38;0.80;;;22.30;68.50;;;;;;5028859;28;20026;-67
2022/11/13 07:59:43;;;;;;;3.63;0.90;;;22.40;67.70;;;;;;5033471;28;20059;-69
2022/11/13 08:02:14;;;;;;;1.02;0.50;;;22.40;67.00;;;;;;5030485;28;20013;-71
2022/11/13 08:04:41;;;;;;;3.45;1.00;;;22.40;66.00;;;;;;5028518;28;20029;-70
2022/11/13 08:07:20;;;;;;;4.15;0.60;;;22.50;65.90;;;;;;5029960;28;20580;-71
2022/11/13 08:09:46;;;;;;;2.35;0.38;;;22.50;65.80;;;;;;5028765;28;20021;-70
2022/11/13 08:12:32;;;;;;;1.42;0.57;;;22.60;65.70;;;;;;5029886;28;20049;-70
2022/11/13 08:15:00;;;;;;;2.70;0.52;;;22.60;65.50;;;;;;5027252;28;20083;-72
2022/11/13 08:17:26;;;;;;;2.00;0.40;;;22.60;65.40;;;;;;5030235;28;20025;-69
2022/11/13 08:19:53;;;;;;;6.53;1.83;;;22.70;65.40;;;;;;5029660;28;20459;-66
2022/11/13 08:22:19;;;;;;;5.32;1.08;;;22.70;64.70;;;;;;5029396;28;20021;-66
2022/11/13 08:24:46;;;;;;;4.63;0.85;;;22.80;64.20;;;;;;5032008;28;20037;-70
2022/11/13 08:27:12;;;;;;;48.90;33.20;;;22.80;63.70;;;;;;5029301;28;20024;-71
2022/11/13 08:29:39;;;;;;;47.13;31.75;;;22.90;63.70;;;;;;5034465;28;20064;-63
2022/11/13 08:32:05;;;;;;;32.65;17.33;;;22.90;63.80;;;;;;5035450;28;20381;-63
2022/11/13 08:34:33;;;;;;;7.45;4.22;;;23.00;63.60;;;;;;5030764;28;20022;-64
2022/11/13 08:36:59;;;;;;;10.05;3.47;;;23.00;62.90;;;;;;5033984;28;20500;-64
2022/11/13 08:39:25;;;;;;;3.33;1.30;;;23.00;62.70;;;;;;5034738;28;21333;-72
2022/11/13 08:41:52;;;;;;;1.98;1.05;;;23.00;62.50;;;;;;5037036;28;20017;-70
2022/11/13 08:44:18;;;;;;;1.75;0.60;;;23.10;62.30;;;;;;5034956;28;20103;-63
2022/11/13 08:46:45;;;;;;;1.48;0.70;;;23.10;62.00;;;;;;5031622;28;20542;-64
2022/11/13 08:49:11;;;;;;;1.88;1.30;;;23.10;61.80;;;;;;5034838;28;20061;-63
2022/11/13 08:51:38;;;;;;;1.55;0.50;;;23.20;61.70;;;;;;5037391;28;20093;-65
2022/11/13 08:54:04;;;;;;;3.95;0.55;;;23.20;61.70;;;;;;5034308;28;20591;-64
2022/11/13 08:56:31;;;;;;;3.30;0.95;;;23.20;61.50;;;;;;5033380;28;20022;-64
2022/11/13 08:58:57;;;;;;;1.88;0.68;;;23.30;61.50;;;;;;5034348;28;20104;-73
2022/11/13 09:01:24;;;;;;;1.50;0.57;;;23.30;61.60;;;;;;5035246;28;20013;-64
2022/11/13 09:03:51;;;;;;;6.32;0.77;;;23.40;61.40;;;;;;5032650;28;20051;-71
2022/11/13 09:06:18;;;;;;;1.25;0.60;;;23.40;61.00;;;;;;5032852;28;20031;-63
2022/11/13 09:08:44;;;;;;;2.10;0.60;;;23.40;60.60;;;;;;5032176;28;20028;-63
2022/11/13 09:11:11;;;;;;;5.72;0.73;;;23.50;60.60;;;;;;5039021;28;20052;-63
2022/11/13 09:13:37;;;;;;;3.67;0.73;;;23.60;60.70;;;;;;5034868;28;20076;-62
2022/11/13 09:16:04;;;;;;;1.02;0.28;;;23.60;60.60;;;;;;5030746;28;20423;-63
2022/11/13 09:18:31;;;;;;;1.20;0.50;;;23.60;60.10;;;;;;5030609;28;20088;-69
2022/11/13 09:21:01;;;;;;;0.70;0.60;;;23.70;59.30;;;;;;5034238;28;20021;-74
2022/11/13 09:23:28;;;;;;;1.30;0.55;;;23.70;58.80;;;;;;5036634;28;20558;-75
2022/11/13 09:25:55;;;;;;;2.58;1.02;;;23.70;58.30;;;;;;5034513;28;20506;-67
2022/11/13 09:28:22;;;;;;;2.20;0.40;;;23.70;57.90;;;;;;5031607;28;20025;-67
2022/11/13 09:30:49;;;;;;;1.42;0.55;;;23.70;57.80;;;;;;5030608;28;20022;-68
2022/11/13 09:33:15;;;;;;;2.17;0.40;;;23.80;57.70;;;;;;5031579;28;20021;-68
2022/11/13 09:35:42;;;;;;;0.68;0.50;;;23.80;57.40;;;;;;5030053;28;20461;-68
2022/11/13 09:38:12;;;;;;;3.92;1.75;;;23.80;57.20;;;;;;5030826;28;20029;-68
2022/11/13 09:40:38;;;;;;;2.35;0.68;;;23.80;57.30;;;;;;5035225;28;20063;-69
2022/11/13 09:43:16;;;;;;;2.60;0.82;;;23.80;57.20;;;;;;5035424;28;20026;-67
2022/11/13 09:45:42;;;;;;;4.05;1.15;;;23.80;57.30;;;;;;5036400;28;20531;-68
2022/11/13 09:48:32;;;;;;;1.63;0.55;;;23.80;57.60;;;;;;5033209;28;20496;-70
2022/11/13 09:51:06;;;;;;;3.85;0.50;;;23.90;58.00;;;;;;5029387;28;20036;-66
2022/11/13 09:53:36;;;;;;;3.85;0.63;;;23.90;58.20;;;;;;5032905;28;20476;-66
2022/11/13 09:56:26;;;;;;;2.80;0.38;;;23.90;58.40;;;;;;5031966;28;20049;-67
2022/11/13 09:59:11;;;;;;;1.60;0.35;;;24.00;58.40;;;;;;5029508;28;20054;-68
2022/11/13 12:14:33;;;;;;;6.15;4.47;;;24.90;59.40;;;;;;5082863;27;20501;-71
2022/11/13 12:17:18;;;;;;;5.57;3.05;;;25.00;60.10;;;;;;5059169;28;20155;-72
2022/11/13 12:19:50;;;;;;;20.40;17.48;;;25.10;59.90;;;;;;5057832;28;20041;-72
2022/11/13 12:22:28;;;;;;;11.32;6.30;;;25.20;59.80;;;;;;5063262;28;20037;-73
2022/11/13 12:25:23;;;;;;;56.17;50.15;;;25.30;59.60;;;;;;5076450;28;20130;-72
2022/11/13 12:28:05;;;;;;;51.28;46.10;;;25.30;59.20;;;;;;5061952;28;20024;-73
2022/11/13 12:31:05;;;;;;;36.60;33.17;;;25.30;59.20;;;;;;5067605;28;20475;-73
2022/11/13 12:33:56;;;;;;;25.60;21.98;;;25.30;58.90;;;;;;5083128;28;20098;-74
2022/11/13 12:36:24;;;;;;;24.05;17.85;;;25.40;58.80;;;;;;5068750;28;20411;-74
2022/11/13 12:39:26;;;;;;;16.48;13.27;;;25.40;58.70;;;;;;5068906;28;20047;-74
2022/11/13 12:42:04;;;;;;;18.95;16.92;;;25.40;58.70;;;;;;5067321;28;20375;-75
2022/11/13 12:44:40;;;;;;;15.88;11.77;;;25.40;58.60;;;;;;5068726;28;20458;-73
2022/11/13 12:47:07;;;;;;;17.92;14.55;;;25.50;58.60;;;;;;5063705;28;20602;-75
2022/11/13 12:49:35;;;;;;;19.38;13.50;;;25.50;58.40;;;;;;5065059;28;20048;-74
2022/11/13 12:52:19;;;;;;;44.63;34.60;;;25.50;58.10;;;;;;5065780;28;20592;-73
2022/11/13 12:54:46;;;;;;;87.28;61.92;;;25.60;57.80;;;;;;5064243;28;20024;-73
2022/11/13 12:57:12;;;;;;;193.50;161.00;;;25.60;57.50;;;;;;5064809;28;20020;-72
2022/11/13 12:59:54;;;;;;;408.00;351.80;;;25.60;57.50;;;;;;5062623;28;20029;-72
2022/11/13 13:02:33;;;;;;;618.35;520.53;;;25.60;56.90;;;;;;5065643;28;20514;-73
2022/11/13 13:05:06;;;;;;;574.78;483.30;;;25.50;56.90;;;;;;5063725;28;20021;-73
2022/11/13 13:08:00;;;;;;;461.67;410.27;;;25.50;57.40;;;;;;5067083;28;20052;-73
2022/11/13 13:10:34;;;;;;;363.20;323.02;;;25.60;57.20;;;;;;5064530;28;20094;-74
2022/11/13 13:13:16;;;;;;;247.90;209.77;;;25.60;56.80;;;;;;5063745;28;20391;-73
2022/11/13 13:15:54;;;;;;;193.90;162.13;;;25.60;56.90;;;;;;5054208;28;20036;-73
2022/11/13 13:18:31;;;;;;;161.40;141.60;;;25.70;56.80;;;;;;5053650;28;20025;-74
2022/11/13 13:21:12;;;;;;;67.15;55.45;;;25.70;56.80;;;;;;5052290;28;20463;-74
2022/11/13 13:23:42;;;;;;;28.13;24.00;;;25.70;56.60;;;;;;5049817;28;20033;-74
2022/11/13 13:26:21;;;;;;;16.33;8.52;;;25.70;56.70;;;;;;5058987;28;20024;-73
2022/11/13 13:28:52;;;;;;;4.70;2.97;;;25.70;56.40;;;;;;5051171;28;20028;-75
2022/11/13 13:31:38;;;;;;;8.68;3.40;;;25.70;56.40;;;;;;5054103;28;20420;-73
2022/11/13 13:34:23;;;;;;;3.85;2.50;;;25.70;56.60;;;;;;5053690;28;20025;-74
2022/11/13 13:36:49;;;;;;;;;;;25.70;56.50;;;;;;5050039;28;20029;-73
2022/11/13 13:39:27;;;;;;;3.35;1.60;;;25.70;55.90;;;;;;5051773;28;20359;-73
2022/11/13 13:42:05;;;;;;;4.47;1.33;;;25.70;55.40;;;;;;5050629;28;20065;-75
2022/11/13 13:44:56;;;;;;;23.75;2.22;;;25.70;55.60;;;;;;5052783;28;20096;-76
2022/11/13 13:47:25;;;;;;;3.47;1.65;;;25.70;55.30;;;;;;5042589;28;20025;-79
2022/11/13 13:49:52;;;;;;;7.63;1.85;;;25.70;55.20;;;;;;5047072;28;20104;-75
2022/11/13 13:52:30;;;;;;;6.80;1.98;;;25.60;54.90;;;;;;5049658;28;20059;-76
2022/11/13 13:54:58;;;;;;;4.88;1.23;;;25.70;55.10;;;;;;5053093;28;20033;-73
2022/11/13 13:57:26;;;;;;;2.90;0.82;;;25.70;54.30;;;;;;5051615;28;20021;-73
2022/11/13 13:59:52;;;;;;;3.58;0.90;;;25.70;53.60;;;;;;5049262;28;20027;-74
2022/11/13 14:02:22;;;;;;;18.73;3.95;;;25.60;53.80;;;;;;5050756;28;20501;-75
2022/11/13 14:04:50;;;;;;;9.68;1.20;;;25.60;54.00;;;;;;5050277;28;20021;-74
2022/11/13 14:07:27;;;;;;;5.30;0.73;;;25.70;54.60;;;;;;5045961;28;20075;-74
2022/11/13 14:10:17;;;;;;;2.58;0.77;;;25.70;54.30;;;;;;5052764;28;20375;-73
2022/11/13 14:12:45;;;;;;;0.70;0.70;;;25.70;53.90;;;;;;5047043;28;20070;-73
2022/11/13 14:15:30;;;;;;;1.45;0.55;;;25.70;52.80;;;;;;5049768;28;20111;-75
2022/11/13 14:18:08;;;;;;;5.28;2.08;;;25.70;52.50;;;;;;5050423;28;20032;-74
2022/11/13 14:20:56;;;;;;;1.92;1.42;;;25.70;52.90;;;;;;5051296;28;20025;-75
2022/11/13 14:23:55;;;;;;;4.07;1.63;;;25.70;52.80;;;;;;5049086;28;20480;-73
2022/11/13 14:26:22;;;;;;;1.70;0.50;;;25.70;52.60;;;;;;5045859;28;20112;-70
2022/11/13 14:28:54;;;;;;;2.17;0.50;;;25.70;52.00;;;;;;5052608;28;20078;-72
2022/11/13 14:31:30;;;;;;;0.68;0.50;;;25.70;51.20;;;;;;5050155;28;20017;-71
2022/11/13 14:34:01;;;;;;;9.05;2.00;;;25.70;51.60;;;;;;5048373;28;20100;-72
2022/11/13 14:36:33;;;;;;;3.17;0.98;;;25.70;52.60;;;;;;5050652;28;20541;-72
2022/11/13 14:39:00;;;;;;;3.33;0.60;;;25.70;53.50;;;;;;5049415;28;20024;-72
2022/11/13 14:41:51;;;;;;;1.92;0.75;;;25.60;53.70;;;;;;5050941;28;20025;-71
2022/11/13 14:44:33;;;;;;;2.47;0.82;;;25.60;53.90;;;;;;5047417;28;20090;-73
2022/11/13 14:47:05;;;;;;;25.75;5.10;;;25.60;54.10;;;;;;5048388;28;20031;-72
2022/11/13 14:49:35;;;;;;;3.25;1.77;;;25.60;54.60;;;;;;5050923;28;20467;-70
2022/11/13 14:52:02;;;;;;;37.80;3.35;;;25.50;54.60;;;;;;5050569;28;20028;-71
2022/11/13 14:54:36;;;;;;;1.48;0.85;;;25.50;54.50;;;;;;5052851;28;20037;-73
2022/11/13 14:57:08;;;;;;;1.77;1.00;;;25.50;54.50;;;;;;5051120;28;20041;-72
2022/11/13 14:59:35;;;;;;;2.33;0.68;;;25.50;54.50;;;;;;5049066;28;20053;-72
2022/11/13 15:02:03;;;;;;;3.58;1.08;;;25.50;54.80;;;;;;5044873;28;20039;-71
2022/11/13 15:04:29;;;;;;;1.33;0.70;;;25.50;55.20;;;;;;5045065;28;20028;-72
2022/11/13 15:07:02;;;;;;;3.60;1.08;;;25.50;55.40;;;;;;5051247;28;20051;-72
2022/11/13 15:09:30;;;;;;;2.50;1.52;;;25.50;55.50;;;;;;5050210;28;20025;-70
2022/11/13 15:11:56;;;;;;;5.40;0.80;;;25.50;55.50;;;;;;5049388;28;20357;-71